Time;durP1;ratioP1;P1;durP2;ratioP2;P2;SDS_P1;SDS_P2;PMS_P1;PMS_P2;Temp;Humidity;BMP_temperature;BMP_pressure;BME280_temperature;BME280_humidity;BME280_pressure;Samples;Min_cycle;Max_cycle;Signal;HPM_P1;HPM_P2
2022/05/26 00:00:01;;;;;;;4.00;2.60;;;20.20;56.10;;;14.35;86.77;101506.28;174112;28;1080;-69
2022/05/26 00:00:13;;;;;;;5.57;2.70;;;20.30;56.10;;;14.37;86.47;101509.69;174087;28;1029;-68
2022/05/26 00:00:19;;;;;;;6.32;2.71;;;20.30;56.10;;;14.30;87.09;101514.34;174076;28;1373;-69
2022/05/26 00:00:24;;;;;;;6.40;2.70;;;20.30;56.10;;;14.26;87.17;101508.41;174077;28;943;-69
2022/05/26 00:00:31;;;;;;;6.27;2.70;;;20.30;56.10;;;14.26;87.13;101513.66;174125;28;919;-68
2022/05/26 00:00:36;;;;;;;5.23;2.77;;;20.20;56.10;;;14.29;86.87;101510.03;174089;28;958;-69
2022/05/26 00:00:42;;;;;;;4.95;2.85;;;20.20;56.10;;;14.27;87.05;101510.09;173318;28;1310;-69
2022/05/26 00:00:49;;;;;;;5.05;2.80;;;20.30;56.10;;;14.28;87.08;101510.97;173385;28;1101;-69
2022/05/26 00:00:54;;;;;;;5.15;2.80;;;20.30;56.10;;;14.23;87.33;101510.34;173422;28;990;-69
2022/05/26 00:01:04;;;;;;;5.00;2.83;;;20.30;56.10;;;14.16;87.80;101508.00;173437;28;1041;-69
2022/05/26 00:01:12;;;;;;;4.80;2.69;;;20.30;56.10;;;14.15;87.78;101511.56;173394;28;1168;-69
2022/05/26 00:01:18;;;;;;;3.70;2.50;;;20.30;56.10;;;14.19;87.27;101501.75;173397;28;901;-69
2022/05/26 00:01:27;;;;;;;3.60;2.52;;;20.20;56.10;;;14.25;87.21;101505.84;173409;28;895;-69
2022/05/26 00:01:33;;;;;;;3.27;2.50;;;20.20;56.10;;;14.29;87.06;101507.41;173461;28;899;-69
2022/05/26 00:01:40;;;;;;;3.22;2.58;;;20.30;56.10;;;14.32;86.77;101504.66;173388;28;1238;-69
2022/05/26 00:01:45;;;;;;;3.40;2.60;;;20.20;56.10;;;14.34;86.95;101504.59;173418;28;875;-69
2022/05/26 00:01:52;;;;;;;3.83;2.67;;;20.30;56.10;;;14.32;87.07;101506.41;173397;28;952;-68
2022/05/26 00:02:03;;;;;;;4.03;2.80;;;20.20;56.10;;;14.34;86.88;101505.41;173430;28;1128;-69
2022/05/26 00:02:08;;;;;;;4.70;2.74;;;20.30;56.10;;;14.34;86.58;101508.03;172619;28;1395;-69
2022/05/26 00:02:14;;;;;;;5.03;2.63;;;20.30;56.20;;;14.35;86.53;101507.13;172705;28;918;-68
2022/05/26 00:02:20;;;;;;;5.35;2.67;;;20.30;56.10;;;14.38;86.55;101511.38;172726;28;915;-68
2022/05/26 00:02:26;;;;;;;5.20;2.60;;;20.30;56.10;;;14.35;86.44;101507.13;172704;28;1104;-68
2022/05/26 00:02:32;;;;;;;4.98;2.54;;;20.30;56.10;;;14.37;86.60;101504.44;172731;28;1137;-68
2022/05/26 00:02:38;;;;;;;4.65;2.58;;;20.30;56.10;;;14.37;86.46;101504.44;172633;28;891;-68
2022/05/26 00:02:44;;;;;;;4.63;2.60;;;20.30;56.10;;;14.33;86.89;101508.13;173374;28;959;-68
2022/05/26 00:02:49;;;;;;;3.97;2.50;;;20.30;56.10;;;14.35;86.77;101503.66;173409;28;911;-68
2022/05/26 00:02:55;;;;;;;4.10;2.40;;;20.30;56.10;;;14.36;86.88;101507.97;173382;28;1081;-68
2022/05/26 00:03:01;;;;;;;4.38;2.58;;;20.30;56.10;;;14.35;86.69;101508.91;173435;28;994;-67
2022/05/26 00:03:07;;;;;;;4.45;2.55;;;20.30;56.10;;;14.37;86.62;101501.81;173421;28;1028;-68
2022/05/26 00:03:13;;;;;;;4.88;2.60;;;20.30;56.10;;;14.36;86.73;101503.56;173414;28;906;-68
2022/05/26 00:03:19;;;;;;;4.95;2.60;;;20.30;56.10;;;14.37;86.74;101507.91;173440;28;915;-68
2022/05/26 00:03:25;;;;;;;5.05;2.63;;;20.30;56.10;;;14.29;87.07;101512.66;173407;28;847;-69
2022/05/26 00:03:39;;;;;;;5.03;2.65;;;20.20;56.10;;;14.23;87.00;101491.97;173342;28;1314;-69
2022/05/26 00:03:47;;;;;;;4.46;2.70;;;20.30;56.10;;;14.26;87.14;101507.56;173380;28;1349;-69
2022/05/26 00:03:54;;;;;;;4.08;2.77;;;20.30;56.10;;;14.29;86.97;101507.41;173406;28;970;-68
2022/05/26 00:03:59;;;;;;;3.70;2.78;;;20.30;56.20;;;14.31;86.91;101505.59;173348;28;966;-68
2022/05/26 00:04:05;;;;;;;3.93;2.70;;;20.30;56.10;;;14.34;86.94;101508.03;173410;28;930;-69
2022/05/26 00:04:11;;;;;;;4.40;2.78;;;20.30;56.10;;;14.31;86.76;101510.84;173478;28;985;-68
2022/05/26 00:04:17;;;;;;;4.43;2.70;;;20.30;56.10;;;14.31;86.94;101495.06;173477;28;1053;-69
2022/05/26 00:04:23;;;;;;;4.35;2.65;;;20.30;56.10;;;14.29;86.80;101494.28;173471;28;1152;-68
2022/05/26 00:04:29;;;;;;;4.75;2.63;;;20.30;56.10;;;14.32;86.89;101501.16;173492;28;1120;-68
2022/05/26 00:04:35;;;;;;;4.67;2.70;;;20.30;56.10;;;14.28;87.07;101501.34;173517;28;1125;-68
2022/05/26 00:04:41;;;;;;;4.30;2.67;;;20.30;56.10;;;14.33;86.59;101495.84;173392;28;903;-68
2022/05/26 00:04:47;;;;;;;4.28;2.65;;;20.30;56.10;;;14.34;86.77;101505.41;173474;28;930;-68
2022/05/26 00:04:52;;;;;;;4.95;2.70;;;20.30;56.10;;;14.37;86.49;101509.69;173453;28;1365;-68
2022/05/26 00:04:58;;;;;;;4.87;2.67;;;20.30;56.10;;;14.35;86.64;101499.25;173445;28;1448;-68
2022/05/26 00:05:05;;;;;;;5.18;2.67;;;20.30;56.10;;;14.30;86.91;101503.84;173452;28;989;-69
2022/05/26 00:05:11;;;;;;;4.87;2.60;;;20.30;56.10;;;14.18;87.63;101494.81;173479;28;1069;-69
2022/05/26 00:05:16;;;;;;;5.03;2.63;;;20.30;56.10;;;14.11;87.83;101499.50;173476;28;938;-69
2022/05/26 00:05:22;;;;;;;4.80;2.60;;;20.30;56.10;;;14.05;88.05;101494.53;173447;28;1084;-68
2022/05/26 00:05:28;;;;;;;4.55;2.60;;;20.30;56.10;;;14.06;88.13;101501.47;173433;28;1050;-68
2022/05/26 00:05:34;;;;;;;4.15;2.63;;;20.30;56.10;;;14.08;88.08;101504.88;173355;28;1062;-68
2022/05/26 00:05:40;;;;;;;4.60;2.70;;;20.30;56.10;;;14.06;88.17;101495.38;173385;28;1092;-68
2022/05/26 00:05:45;;;;;;;4.50;2.70;;;20.30;56.10;;;14.11;87.92;101502.13;173285;28;990;-68
2022/05/26 00:05:51;;;;;;;4.13;2.70;;;20.30;56.10;;;14.15;87.73;101498.44;173394;28;843;-68
2022/05/26 00:05:58;;;;;;;4.68;2.65;;;20.30;56.10;;;14.19;87.64;101503.53;173398;28;919;-68
2022/05/26 00:06:07;;;;;;;4.66;2.60;;;20.30;56.10;;;14.15;87.43;101495.81;173448;28;958;-68
2022/05/26 00:06:19;;;;;;;4.93;2.60;;;20.20;56.10;;;14.20;87.60;101498.19;173405;28;1024;-69
2022/05/26 00:06:25;;;;;;;4.85;2.60;;;20.30;56.10;;;14.25;87.34;101496.22;173389;28;1203;-68
2022/05/26 00:06:32;;;;;;;4.88;2.70;;;20.30;56.10;;;14.21;87.68;101501.69;173442;28;911;-69
2022/05/26 00:06:38;;;;;;;5.10;2.90;;;20.30;56.10;;;14.15;87.88;101503.69;173335;28;1097;-69
2022/05/26 00:06:44;;;;;;;4.93;2.90;;;20.30;56.10;;;14.15;87.81;101495.81;173397;28;1108;-68
2022/05/26 00:06:50;;;;;;;4.88;2.95;;;20.30;56.10;;;14.14;87.91;101499.34;173327;28;986;-68
2022/05/26 00:06:56;;;;;;;5.97;3.05;;;20.30;56.10;;;14.18;87.86;101499.19;173415;28;950;-69
2022/05/26 00:07:02;;;;;;;5.92;3.00;;;20.30;56.10;;;14.15;87.88;101501.06;173440;28;974;-68
2022/05/26 00:07:08;;;;;;;6.03;2.87;;;20.30;56.10;;;14.20;87.52;101500.00;173413;28;1129;-68
2022/05/26 00:07:14;;;;;;;6.00;2.80;;;20.30;56.10;;;14.24;87.39;101504.16;173365;28;922;-68
2022/05/26 00:07:20;;;;;;;6.30;2.80;;;20.20;56.10;;;14.22;87.50;101500.75;173412;28;1156;-68
2022/05/26 00:07:25;;;;;;;5.10;2.65;;;20.30;56.10;;;14.12;88.14;101500.34;173384;28;1061;-69
2022/05/26 00:07:31;;;;;;;5.55;2.78;;;20.20;56.10;;;14.08;88.21;101497.00;173543;28;1061;-68
2022/05/26 00:07:37;;;;;;;6.47;2.90;;;20.30;56.20;;;14.09;88.33;101496.09;174107;28;859;-68
2022/05/26 00:07:43;;;;;;;6.63;2.93;;;20.30;56.10;;;14.04;88.60;101493.66;174102;28;840;-69
2022/05/26 00:07:49;;;;;;;6.53;2.95;;;20.30;56.20;;;14.03;88.62;101502.47;174067;28;859;-68
2022/05/26 00:07:55;;;;;;;6.40;2.97;;;20.30;56.10;;;14.05;88.50;101497.16;174100;28;855;-68
2022/05/26 00:08:01;;;;;;;5.77;2.80;;;20.20;56.20;;;14.08;88.28;101499.63;174139;28;1100;-70
2022/05/26 00:08:07;;;;;;;4.45;2.70;;;20.20;56.20;;;14.11;88.32;101498.63;174121;28;930;-69
2022/05/26 00:08:13;;;;;;;4.03;2.67;;;20.30;56.20;;;14.03;88.57;101499.84;174079;28;1020;-69
2022/05/26 00:08:18;;;;;;;4.65;2.60;;;20.20;56.20;;;14.02;88.61;101499.91;173332;28;1007;-68
2022/05/26 00:08:24;;;;;;;5.13;2.70;;;20.30;56.20;;;14.05;88.44;101499.78;173375;28;1021;-68
2022/05/26 00:08:30;;;;;;;5.27;2.70;;;20.20;56.20;;;14.05;88.58;101499.78;173407;28;1021;-68
2022/05/26 00:08:38;;;;;;;5.28;2.70;;;20.30;56.20;;;14.01;88.58;101503.47;173424;28;1465;-68
2022/05/26 00:08:45;;;;;;;5.57;2.70;;;20.20;56.20;;;14.01;88.76;101498.22;173404;28;950;-68
2022/05/26 00:08:52;;;;;;;4.84;2.68;;;20.30;56.20;;;13.99;88.90;101505.34;173336;28;891;-68
2022/05/26 00:08:59;;;;;;;4.56;2.60;;;20.30;56.20;;;14.04;88.56;101503.34;173397;28;923;-68
2022/05/26 00:09:05;;;;;;;4.60;2.70;;;20.20;56.20;;;14.06;88.46;101498.84;173451;28;938;-68
2022/05/26 00:09:11;;;;;;;4.68;2.70;;;20.30;56.20;;;14.06;88.47;101490.97;173378;28;1038;-67
2022/05/26 00:09:16;;;;;;;4.87;2.70;;;20.30;56.20;;;14.10;88.30;101503.03;173384;28;1021;-68
2022/05/26 00:09:23;;;;;;;5.43;2.80;;;20.20;56.20;;;14.14;87.97;101494.09;173411;28;1045;-68
2022/05/26 00:09:28;;;;;;;5.37;2.80;;;20.20;56.20;;;14.12;88.22;101498.56;173402;28;1128;-69
2022/05/26 00:09:34;;;;;;;5.20;2.78;;;20.20;56.20;;;14.12;88.13;101497.72;173410;28;1124;-68
2022/05/26 00:09:40;;;;;;;4.63;2.75;;;20.20;56.20;;;14.15;87.83;101501.06;173401;28;844;-68
2022/05/26 00:09:46;;;;;;;4.28;2.88;;;20.20;56.20;;;14.20;87.67;101500.00;173421;28;986;-67
2022/05/26 00:09:51;;;;;;;4.07;2.90;;;20.20;56.20;;;14.23;87.68;101502.47;173398;28;974;-68
2022/05/26 00:09:57;;;;;;;4.07;2.90;;;20.20;56.20;;;14.25;87.55;101500.59;173389;28;1030;-68
2022/05/26 00:10:04;;;;;;;4.30;2.90;;;20.20;56.20;;;14.28;87.40;101506.59;173446;28;844;-68
2022/05/26 00:10:11;;;;;;;4.88;2.90;;;20.20;56.20;;;14.28;87.20;101501.34;172631;28;1033;-68
2022/05/26 00:10:17;;;;;;;5.84;2.90;;;20.20;56.20;;;14.19;88.01;101500.91;172943;28;1161;-68
2022/05/26 00:10:23;;;;;;;5.62;2.80;;;20.20;56.20;;;14.21;87.64;101499.91;173327;28;1138;-67
2022/05/26 00:10:28;;;;;;;5.50;2.80;;;20.20;56.20;;;14.23;87.53;101503.31;173388;28;903;-68
2022/05/26 00:10:35;;;;;;;5.22;2.80;;;20.20;56.20;;;14.14;88.03;101499.34;173429;28;1045;-69
2022/05/26 00:10:41;;;;;;;5.20;2.72;;;20.20;56.30;;;14.11;88.29;101499.50;173394;28;890;-68
2022/05/26 00:10:46;;;;;;;4.37;2.70;;;20.20;56.30;;;14.02;88.80;101495.53;173373;28;1096;-69
2022/05/26 00:10:54;;;;;;;4.40;2.78;;;20.20;56.30;;;13.96;88.70;101494.97;173394;28;1034;-69
2022/05/26 00:11:07;;;;;;;5.20;2.85;;;20.20;56.30;;;13.88;89.27;101501.41;173318;28;1430;-69
2022/05/26 00:11:31;;;;;;;5.70;2.90;;;20.20;56.30;;;14.06;88.49;101504.09;173375;28;1234;-68
2022/05/26 00:11:39;;;;;;;5.63;2.89;;;20.20;56.30;;;14.12;88.26;101495.94;173363;28;1220;-68
2022/05/26 00:11:45;;;;;;;5.13;2.80;;;20.20;56.30;;;14.18;87.97;101501.81;173419;28;1065;-69
2022/05/26 00:11:51;;;;;;;5.67;2.80;;;20.20;56.30;;;14.21;87.61;101504.31;173409;28;910;-68
2022/05/26 00:11:56;;;;;;;5.53;2.80;;;20.20;56.30;;;14.24;87.27;101496.28;173428;28;1077;-69
2022/05/26 00:12:03;;;;;;;6.32;2.83;;;20.20;56.30;;;14.26;87.50;101497.06;173438;28;946;-69
2022/05/26 00:12:12;;;;;;;6.83;2.97;;;20.20;56.30;;;14.26;87.37;101502.31;173888;28;867;-69
2022/05/26 00:12:19;;;;;;;7.00;3.20;;;20.20;56.30;;;14.30;87.17;101498.59;174121;28;863;-68
2022/05/26 00:12:25;;;;;;;7.26;3.14;;;20.20;56.30;;;14.34;86.80;101505.41;173459;28;911;-68
2022/05/26 00:12:31;;;;;;;8.40;3.13;;;20.20;56.30;;;14.35;86.77;101495.78;173443;28;1252;-69
2022/05/26 00:12:37;;;;;;;8.70;3.17;;;20.20;56.30;;;14.37;86.73;101500.03;173454;28;954;-69
2022/05/26 00:12:44;;;;;;;8.13;3.10;;;20.20;56.30;;;14.34;86.88;101499.31;173498;28;891;-69
2022/05/26 00:12:50;;;;;;;8.18;3.00;;;20.20;56.30;;;14.33;86.83;101498.47;173475;28;1037;-69
2022/05/26 00:12:55;;;;;;;7.82;2.92;;;20.20;56.30;;;14.30;87.15;101498.59;173470;28;974;-69
2022/05/26 00:13:01;;;;;;;6.55;2.97;;;20.20;56.30;;;14.28;87.35;101495.22;173420;28;939;-69
2022/05/26 00:13:07;;;;;;;5.82;3.05;;;20.20;56.30;;;14.30;87.18;101503.84;173406;28;954;-69
2022/05/26 00:13:12;;;;;;;5.72;3.00;;;20.20;56.40;;;14.25;87.49;101496.22;173430;28;867;-69
2022/05/26 00:13:18;;;;;;;5.27;2.93;;;20.20;56.30;;;14.27;87.29;101506.66;173444;28;915;-69
2022/05/26 00:13:25;;;;;;;5.95;3.13;;;20.20;56.40;;;14.28;87.23;101500.47;173442;28;1120;-68
2022/05/26 00:13:30;;;;;;;6.60;3.20;;;20.20;56.40;;;14.28;87.10;101503.09;173461;28;914;-69
2022/05/26 00:13:39;;;;;;;6.70;3.15;;;20.20;56.40;;;14.31;86.90;101502.97;173473;28;1065;-69
2022/05/26 00:13:45;;;;;;;6.16;3.10;;;20.20;56.40;;;14.32;86.89;101504.66;173436;28;1038;-69
2022/05/26 00:13:51;;;;;;;6.03;3.08;;;20.20;56.40;;;14.28;87.17;101495.22;173471;28;966;-69
2022/05/26 00:14:07;;;;;;;5.63;2.95;;;20.20;56.40;;;14.27;87.12;101501.41;173306;28;1018;-69
2022/05/26 00:14:13;;;;;;;5.35;2.85;;;20.20;56.40;;;14.34;86.74;101497.53;173369;28;1208;-69
2022/05/26 00:14:19;;;;;;;5.80;2.80;;;20.20;56.40;;;14.30;87.03;101498.59;173383;28;958;-69
2022/05/26 00:14:25;;;;;;;5.53;2.83;;;20.10;56.40;;;14.28;87.41;101500.47;173398;28;935;-69
2022/05/26 00:14:30;;;;;;;5.47;2.80;;;20.20;56.40;;;14.29;86.95;101495.16;173391;28;915;-69
2022/05/26 00:14:38;;;;;;;5.33;2.70;;;20.20;56.40;;;14.31;86.82;101500.34;173441;28;1001;-69
2022/05/26 00:14:44;;;;;;;4.65;2.80;;;20.20;56.40;;;14.32;87.00;101502.03;173365;28;1085;-68
2022/05/26 00:14:49;;;;;;;4.15;2.80;;;20.20;56.40;;;14.29;87.24;101502.16;173407;28;835;-69
2022/05/26 00:14:55;;;;;;;4.43;2.87;;;20.20;56.50;;;14.28;87.04;101495.22;173374;28;899;-69
2022/05/26 00:15:02;;;;;;;4.47;2.80;;;20.20;56.50;;;14.29;87.12;101496.91;173383;28;883;-68
2022/05/26 00:15:09;;;;;;;5.28;2.80;;;20.10;56.50;;;14.23;87.55;101498.06;173280;28;1000;-69
2022/05/26 00:15:15;;;;;;;6.82;2.85;;;20.20;56.50;;;14.24;87.42;101504.16;172622;28;1175;-69
2022/05/26 00:15:20;;;;;;;8.17;3.00;;;20.20;56.50;;;14.26;87.40;101502.31;172731;28;1033;-69
2022/05/26 00:15:26;;;;;;;7.50;2.93;;;20.20;56.50;;;14.27;87.14;101498.78;172676;28;1278;-69
2022/05/26 00:15:32;;;;;;;7.55;3.05;;;20.10;56.50;;;14.29;87.02;101507.41;172774;28;871;-68
2022/05/26 00:15:37;;;;;;;7.05;3.10;;;20.20;56.50;;;14.31;87.10;101496.84;172688;28;1097;-69
2022/05/26 00:15:43;;;;;;;5.83;3.07;;;20.20;56.50;;;14.31;87.04;101500.34;172736;28;879;-69
2022/05/26 00:15:49;;;;;;;5.20;2.83;;;20.20;56.50;;;14.34;86.73;101499.31;172662;28;1062;-69
2022/05/26 00:15:55;;;;;;;4.75;2.88;;;20.20;56.50;;;14.35;86.79;101506.28;172978;28;1034;-69
2022/05/26 00:16:02;;;;;;;4.72;2.80;;;20.10;56.50;;;14.35;86.90;101507.13;173363;28;1038;-69
2022/05/26 00:16:10;;;;;;;4.42;2.76;;;20.20;56.50;;;14.37;86.58;101502.66;173389;28;871;-69
2022/05/26 00:16:18;;;;;;;4.58;2.73;;;20.20;56.50;;;14.35;86.90;101504.50;173363;28;949;-69
2022/05/26 00:16:24;;;;;;;4.83;2.70;;;20.20;56.50;;;14.19;87.66;101500.91;173394;28;973;-69
2022/05/26 00:16:30;;;;;;;4.97;2.70;;;20.20;56.50;;;14.14;88.03;101504.59;173409;28;872;-69
2022/05/26 00:16:43;;;;;;;5.70;2.80;;;20.10;56.50;;;14.05;88.54;101499.78;173441;28;1149;-68
2022/05/26 00:16:49;;;;;;;5.81;2.79;;;20.10;56.50;;;14.02;88.73;101500.78;173398;28;1216;-69
2022/05/26 00:16:55;;;;;;;5.32;2.80;;;20.20;56.60;;;14.01;88.93;101503.47;173380;28;855;-69
2022/05/26 00:17:01;;;;;;;5.18;2.78;;;20.10;56.60;;;14.01;88.87;101503.47;173400;28;931;-68
2022/05/26 00:17:07;;;;;;;4.30;2.80;;;20.20;56.60;;;14.01;88.71;101503.47;173404;28;986;-68
2022/05/26 00:17:13;;;;;;;3.97;2.80;;;20.20;56.60;;;14.06;88.28;101501.47;173336;28;1231;-69
2022/05/26 00:17:20;;;;;;;4.10;2.70;;;20.20;56.60;;;14.10;88.17;101508.28;173427;28;828;-69
2022/05/26 00:17:28;;;;;;;4.04;2.80;;;20.20;56.60;;;14.13;88.04;101507.31;173455;28;926;-69
2022/05/26 00:17:34;;;;;;;4.48;2.82;;;20.20;56.60;;;14.19;87.83;101503.53;173515;28;966;-69
2022/05/26 00:17:40;;;;;;;5.20;2.90;;;20.10;56.60;;;14.19;87.69;101501.75;173515;28;965;-69
2022/05/26 00:17:45;;;;;;;5.00;3.00;;;20.20;56.60;;;14.20;87.75;101507.88;173457;28;867;-69
2022/05/26 00:17:52;;;;;;;5.22;2.92;;;20.10;56.60;;;14.13;88.13;101508.13;173435;28;1286;-69
2022/05/26 00:17:58;;;;;;;5.50;3.20;;;20.10;56.60;;;14.04;88.47;101503.34;173467;28;914;-70
2022/05/26 00:18:03;;;;;;;6.13;3.00;;;20.10;56.60;;;13.98;88.77;101496.59;173534;28;867;-69
2022/05/26 00:18:09;;;;;;;6.05;3.05;;;20.10;56.60;;;13.97;88.72;101501.91;173449;28;1086;-69
2022/05/26 00:18:15;;;;;;;5.80;3.00;;;20.10;56.60;;;14.01;88.62;101496.47;173495;28;827;-69
2022/05/26 00:18:21;;;;;;;5.50;3.05;;;20.10;56.60;;;14.05;88.53;101505.03;173444;28;907;-69
2022/05/26 00:18:27;;;;;;;5.63;2.95;;;20.10;56.60;;;14.06;88.36;101509.34;173448;28;899;-69
2022/05/26 00:18:33;;;;;;;5.60;3.10;;;20.10;56.60;;;14.11;88.34;101507.38;173390;28;1319;-69
2022/05/26 00:18:39;;;;;;;5.80;3.20;;;20.10;56.60;;;14.13;88.17;101502.06;173441;28;1037;-69
2022/05/26 00:18:46;;;;;;;6.40;3.20;;;20.10;56.60;;;14.18;87.91;101505.31;173400;28;942;-68
2022/05/26 00:18:52;;;;;;;6.65;3.12;;;20.10;56.60;;;14.19;87.80;101495.66;173384;28;974;-68
2022/05/26 00:18:58;;;;;;;6.13;3.10;;;20.10;56.60;;;14.21;87.82;101501.69;173396;28;882;-68
2022/05/26 00:19:05;;;;;;;5.78;3.00;;;20.10;56.60;;;14.19;88.09;101506.16;173417;28;1037;-68
2022/05/26 00:19:15;;;;;;;5.22;2.88;;;20.10;56.60;;;14.21;87.86;101499.91;172491;28;1158;-68
2022/05/26 00:19:20;;;;;;;5.46;2.89;;;20.10;56.60;;;14.24;87.56;101506.78;172615;28;1151;-68
2022/05/26 00:19:26;;;;;;;5.78;3.00;;;20.10;56.70;;;14.28;87.41;101500.47;172656;28;864;-68
2022/05/26 00:19:33;;;;;;;6.30;2.97;;;20.10;56.70;;;14.29;87.17;101497.78;172728;28;900;-68
2022/05/26 00:19:38;;;;;;;6.56;3.00;;;20.10;56.70;;;14.32;87.41;101506.41;171909;28;1210;-69
2022/05/26 00:19:44;;;;;;;6.30;3.00;;;20.10;56.70;;;14.29;87.35;101507.41;172026;28;837;-68
2022/05/26 00:19:50;;;;;;;6.53;3.07;;;20.10;56.70;;;14.28;87.37;101510.97;172009;28;1018;-69
2022/05/26 00:19:56;;;;;;;6.72;3.00;;;20.10;56.70;;;14.21;87.58;101499.06;172034;28;896;-68
2022/05/26 00:20:05;;;;;;;6.25;2.97;;;20.10;56.70;;;14.12;87.98;101506.44;172039;28;1079;-68
2022/05/26 00:20:12;;;;;;;5.93;2.95;;;20.10;56.70;;;14.12;88.16;101502.97;172031;28;1524;-68
2022/05/26 00:20:17;;;;;;;5.93;2.90;;;20.10;56.70;;;14.06;88.65;101500.63;172063;28;1058;-69
2022/05/26 00:20:24;;;;;;;5.85;2.92;;;20.10;56.70;;;14.07;88.30;101497.94;172056;28;1106;-68
2022/05/26 00:20:30;;;;;;;7.70;3.17;;;20.10;56.70;;;14.04;88.54;101498.91;172085;28;852;-68
2022/05/26 00:20:36;;;;;;;7.60;3.17;;;20.10;56.70;;;14.08;88.60;101499.63;172069;28;832;-68
2022/05/26 00:20:44;;;;;;;7.60;3.25;;;20.10;56.70;;;14.06;88.76;101504.09;172027;28;1632;-68
2022/05/26 00:20:50;;;;;;;7.00;3.30;;;20.10;56.80;;;14.09;88.53;101505.75;172708;28;962;-68
2022/05/26 00:20:56;;;;;;;7.07;3.22;;;20.10;56.70;;;14.08;88.50;101499.63;171961;28;1112;-68
2022/05/26 00:21:02;;;;;;;4.88;3.05;;;20.10;56.80;;;14.07;88.85;101502.34;171821;28;1318;-68
2022/05/26 00:21:08;;;;;;;4.84;3.00;;;20.10;56.80;;;14.06;88.38;101498.84;172853;28;895;-68
2022/05/26 00:21:15;;;;;;;4.80;3.03;;;20.10;56.80;;;14.03;88.71;101506.88;172697;28;911;-68
2022/05/26 00:21:20;;;;;;;5.20;3.16;;;20.10;56.80;;;14.04;88.89;101504.16;172664;28;1065;-68
2022/05/26 00:21:27;;;;;;;5.10;3.30;;;20.10;56.80;;;14.04;88.72;101503.34;172724;28;856;-68
2022/05/26 00:21:32;;;;;;;5.77;3.23;;;20.10;56.80;;;14.02;89.03;101505.16;172749;28;1025;-68
2022/05/26 00:21:39;;;;;;;5.47;3.20;;;20.10;56.80;;;14.03;88.78;101504.25;173146;28;1109;-68
2022/05/26 00:21:49;;;;;;;5.43;3.20;;;20.10;56.80;;;14.04;88.57;101503.34;173399;28;986;-68
2022/05/26 00:21:54;;;;;;;5.24;3.06;;;20.10;56.80;;;14.06;88.76;101501.47;173389;28;1137;-68
2022/05/26 00:22:00;;;;;;;4.93;3.08;;;20.10;56.80;;;14.04;88.84;101498.91;173303;28;1782;-69
2022/05/26 00:22:06;;;;;;;5.43;3.22;;;20.10;56.80;;;14.06;88.63;101498.00;173472;28;851;-68
2022/05/26 00:22:11;;;;;;;6.07;3.23;;;20.10;56.80;;;14.10;88.60;101502.19;173383;28;1140;-68
2022/05/26 00:22:17;;;;;;;6.07;3.17;;;20.10;56.80;;;14.12;88.29;101501.19;173394;28;1050;-68
2022/05/26 00:22:23;;;;;;;6.30;3.22;;;20.10;56.80;;;14.06;88.71;101506.72;173413;28;922;-68
2022/05/26 00:22:28;;;;;;;6.43;3.20;;;20.10;56.80;;;13.98;89.04;101499.22;173382;28;911;-68
2022/05/26 00:22:35;;;;;;;7.15;3.10;;;20.10;56.80;;;13.96;89.21;101497.59;173325;28;946;-68
2022/05/26 00:22:41;;;;;;;7.56;3.10;;;20.10;56.80;;;13.95;89.05;101499.34;173411;28;1394;-68
2022/05/26 00:22:47;;;;;;;7.82;3.10;;;20.10;56.80;;;13.97;89.35;101496.66;173398;28;860;-68
2022/05/26 00:22:52;;;;;;;7.50;3.03;;;20.10;56.80;;;13.99;89.16;101500.09;173383;28;1100;-68
2022/05/26 00:22:58;;;;;;;7.75;3.10;;;20.10;56.80;;;14.01;88.77;101503.47;173362;28;1096;-69
2022/05/26 00:23:04;;;;;;;7.53;3.10;;;20.00;56.80;;;14.04;88.93;101498.09;173427;28;923;-68
2022/05/26 00:23:10;;;;;;;7.13;3.10;;;20.10;56.90;;;14.08;88.59;101504.88;173400;28;895;-68
2022/05/26 00:23:16;;;;;;;6.78;3.10;;;20.10;56.90;;;14.10;88.59;101508.28;174061;28;1089;-68
2022/05/26 00:23:22;;;;;;;7.40;3.08;;;20.10;56.90;;;14.14;88.24;101512.47;174024;28;1037;-68
2022/05/26 00:23:27;;;;;;;7.23;3.03;;;20.10;56.90;;;14.15;88.23;101501.06;173999;28;1033;-68
2022/05/26 00:23:33;;;;;;;7.32;3.03;;;20.10;56.90;;;14.18;88.24;101504.44;174094;28;986;-68
2022/05/26 00:23:39;;;;;;;7.13;3.10;;;20.10;56.90;;;14.16;88.34;101507.13;174093;28;827;-69
2022/05/26 00:23:46;;;;;;;7.72;3.10;;;20.10;56.90;;;14.14;88.38;101499.34;174119;28;1071;-68
2022/05/26 00:23:55;;;;;;;7.37;3.20;;;20.10;56.90;;;14.14;88.38;101499.34;174059;28;977;-69
2022/05/26 00:24:01;;;;;;;6.26;3.19;;;20.10;56.90;;;14.10;88.44;101508.28;173451;28;1176;-68
2022/05/26 00:24:09;;;;;;;6.20;3.10;;;20.10;56.90;;;14.13;88.39;101508.13;173422;28;1121;-69
2022/05/26 00:24:20;;;;;;;5.20;3.10;;;20.00;56.90;;;14.15;88.30;101502.81;173418;28;1073;-69
2022/05/26 00:24:26;;;;;;;5.22;3.04;;;20.10;56.90;;;14.15;88.30;101500.19;173393;28;1218;-68
2022/05/26 00:24:31;;;;;;;5.27;3.00;;;20.10;56.90;;;14.20;88.12;101503.44;173398;28;1018;-68
2022/05/26 00:24:37;;;;;;;4.32;2.90;;;20.10;57.00;;;14.13;88.55;101508.13;173423;28;1975;-68
2022/05/26 00:24:43;;;;;;;4.25;2.90;;;20.10;56.90;;;14.13;88.39;101507.31;173501;28;931;-69
2022/05/26 00:24:48;;;;;;;4.00;2.83;;;20.10;57.00;;;14.14;88.24;101504.59;173468;28;1061;-68
2022/05/26 00:24:54;;;;;;;4.20;2.90;;;20.00;56.90;;;14.13;88.37;101502.88;173425;28;962;-68
2022/05/26 00:25:00;;;;;;;5.22;2.95;;;20.00;57.00;;;14.13;88.50;101504.69;173445;28;892;-68
2022/05/26 00:25:07;;;;;;;6.18;3.13;;;20.10;57.00;;;14.10;88.63;101508.28;173358;28;1056;-68
2022/05/26 00:25:12;;;;;;;7.20;3.20;;;20.10;57.00;;;14.12;88.53;101506.44;173413;28;1329;-68
2022/05/26 00:25:18;;;;;;;7.30;3.33;;;20.10;56.90;;;14.11;88.54;101499.50;173385;28;1034;-69
2022/05/26 00:25:24;;;;;;;6.95;3.35;;;20.10;56.90;;;14.12;88.29;101503.81;173375;28;1037;-68
2022/05/26 00:25:30;;;;;;;6.00;3.30;;;20.10;56.90;;;14.03;88.82;101507.72;173394;28;1074;-69
2022/05/26 00:25:36;;;;;;;5.55;3.28;;;20.10;56.90;;;14.01;89.16;101508.72;173421;28;1030;-68
2022/05/26 00:25:42;;;;;;;5.35;3.20;;;20.10;56.90;;;14.03;88.77;101507.72;173395;28;1094;-68
2022/05/26 00:25:48;;;;;;;6.07;3.30;;;20.10;56.90;;;14.05;88.76;101510.28;173410;28;868;-68
2022/05/26 00:25:54;;;;;;;6.80;3.30;;;20.10;56.90;;;14.09;88.50;101506.59;172637;28;918;-69
2022/05/26 00:26:00;;;;;;;7.13;3.43;;;20.00;56.90;;;14.03;89.10;101504.25;172696;28;916;-69
2022/05/26 00:26:06;;;;;;;6.87;3.40;;;20.10;57.00;;;14.03;89.17;101506.88;172775;28;946;-68
2022/05/26 00:26:12;;;;;;;6.92;3.48;;;20.10;57.00;;;14.01;89.14;101504.34;172701;28;934;-69
2022/05/26 00:26:17;;;;;;;7.07;3.33;;;20.10;57.00;;;13.98;89.19;101504.47;172672;28;1034;-68
2022/05/26 00:26:24;;;;;;;6.63;3.30;;;20.10;57.00;;;14.04;88.92;101508.59;172720;28;855;-68
2022/05/26 00:26:30;;;;;;;7.06;3.22;;;20.10;57.00;;;14.08;88.73;101504.88;172680;28;1136;-68
2022/05/26 00:26:36;;;;;;;7.53;3.13;;;20.00;56.90;;;14.11;88.60;101510.00;172744;28;938;-68
2022/05/26 00:26:42;;;;;;;7.32;3.03;;;20.10;57.00;;;14.13;88.23;101508.13;172696;28;947;-68
2022/05/26 00:26:48;;;;;;;6.82;3.10;;;20.10;57.00;;;14.15;88.41;101510.69;172730;28;847;-68
2022/05/26 00:26:54;;;;;;;6.80;3.10;;;20.00;57.00;;;14.17;88.26;101508.88;172686;28;910;-68
2022/05/26 00:27:00;;;;;;;6.38;3.03;;;20.10;57.00;;;14.20;88.14;101505.25;172699;28;899;-68
2022/05/26 00:27:06;;;;;;;5.90;3.07;;;20.00;57.00;;;14.12;88.63;101506.44;173179;28;901;-68
2022/05/26 00:27:12;;;;;;;5.60;3.10;;;20.10;57.00;;;14.13;88.53;101508.13;173304;28;1069;-68
2022/05/26 00:27:18;;;;;;;5.48;3.20;;;20.10;57.00;;;14.14;88.62;101509.84;173368;28;1077;-68
2022/05/26 00:27:24;;;;;;;5.50;3.10;;;20.10;57.00;;;14.11;88.62;101515.25;173361;28;959;-68
2022/05/26 00:27:30;;;;;;;5.70;3.10;;;20.00;57.00;;;14.11;88.79;101504.75;173410;28;922;-68
2022/05/26 00:27:35;;;;;;;6.32;3.13;;;20.10;57.00;;;14.15;88.36;101511.56;173399;28;1057;-68